Accueil
METAR-TAF:

METAR-TAF

Aéroports :

Aéroport Michel-Pouliot de Gaspé

Gaspé, Québec, Canada

latitude: 48-46N, longitude: 064-29W, altitude: 33 m

Observation

Le bulletin a été fait il y a 56 minutes, à 07:00 UTC
Vent 5 kt de ouest/nord-ouest
Température -15°C
Humidité 65%
Pression 1029 hPa
Visibilité: 24.1 km
Ciel clair

METAR: CYGP 180700Z 29005KT 15SM SKC M15/M20 A3040 RMK VIA CYQB SLP299

Heure: 02:56 (07:56 UTC)

Prévision

Le bulletin a été fait il y a 18 minutes, à 07:38 UTC
Prévision valable du 18 à 08 UTC au 18 à 20 UTC
Vent 5 kt de ouest/nord-ouest
Visibilité: 10 km
Ciel clair
Evoluant progressivement
du 18 à 08 UTC au 18 à 10 UTC
Vent 3 kt de direction variable
Evoluant progressivement
du 18 à 12 UTC au 18 à 14 UTC
Vent 6 kt de sud

TAF: CYGP 180738Z 1808/1820 29005KT P6SM SKC BECMG 1808/1810 VRB03KT BECMG 1812/1814 18006KT RMK NXT FCST BY 181400Z

Observations et prévisions météorologiques de plus de 4000 aéroports (messages METAR et TAF).

Les stations disponibles sont représentées par des disques jaunes et rouges sur la carte.

Passer la souris dessus pour voir le nom de la station.

Cliquer dessus pour voir les observations et prévisions météorologiques.

Pour changer de carte: cliquez sur les boutons verts avec une croix noire pour zoomer, sur le bouton vert avec un tiret pour effectuer un zoom arrière, ou sur les flèches vertes pour les cartes adjacentes.


METAR-TAF: